Time;durP1;ratioP1;P1;durP2;ratioP2;P2;SDS_P1;SDS_P2;PMS_P1;PMS_P2;Temp;Humidity;BMP_temperature;BMP_pressure;BME280_temperature;BME280_humidity;BME280_pressure;Samples;Min_cycle;Max_cycle;Signal;HPM_P1;HPM_P2
2023/07/31 00:01:31;;;;;;;12.88;4.90;;;;;;;;;;4962627;28;20147;-69
2023/07/31 00:03:57;;;;;;;15.88;4.75;;;;;;;;;;4964699;28;20026;-69
2023/07/31 00:06:23;;;;;;;9.48;3.88;;;;;;;;;;4966585;28;20142;-69
2023/07/31 00:08:49;;;;;;;12.27;4.80;;;;;;;;;;4966498;28;20147;-69
2023/07/31 00:11:15;;;;;;;12.45;5.35;;;;;;;;;;4970354;28;20137;-69
2023/07/31 00:13:42;;;;;;;12.32;5.20;;;;;;;;;;4961386;28;20038;-69
2023/07/31 00:16:08;;;;;;;10.95;4.50;;;;;;;;;;4945201;28;20445;-68
2023/07/31 00:18:34;;;;;;;12.75;5.00;;;;;;;;;;4963273;28;20046;-69
2023/07/31 00:21:00;;;;;;;11.20;5.00;;;;;;;;;;4952148;28;20034;-69
2023/07/31 00:23:26;;;;;;;12.95;4.60;;;;;;;;;;4966353;28;20822;-70
2023/07/31 00:25:52;;;;;;;9.85;4.50;;;;;;;;;;4950779;28;20077;-69
2023/07/31 00:28:18;;;;;;;16.17;4.70;;;;;;;;;;4967272;28;20034;-70
2023/07/31 00:30:45;;;;;;;11.50;4.80;;;;;;;;;;4968455;28;20034;-70
2023/07/31 00:33:11;;;;;;;13.35;4.72;;;;;;;;;;4964211;28;20062;-69
2023/07/31 00:35:37;;;;;;;12.57;4.82;;;;;;;;;;4969530;28;20030;-69
2023/07/31 00:38:03;;;;;;;11.32;4.47;;;;;;;;;;4969459;28;20030;-69
2023/07/31 00:40:29;;;;;;;13.07;4.43;;;;;;;;;;4954607;28;20436;-69
2023/07/31 00:42:55;;;;;;;13.15;4.50;;;;;;;;;;4956361;28;20611;-69
2023/07/31 00:45:24;;;;;;;12.27;4.97;;;;;;;;;;4972621;28;20191;-69
2023/07/31 00:47:50;;;;;;;10.85;4.38;;;;;;;;;;4967165;28;20030;-69
2023/07/31 00:50:16;;;;;;;10.77;4.60;;;;;;;;;;4968087;28;20590;-69
2023/07/31 00:52:43;;;;;;;11.02;4.32;;;;;;;;;;4966314;28;20034;-69
2023/07/31 00:55:09;;;;;;;11.65;4.45;;;;;;;;;;4972138;28;20034;-71
2023/07/31 00:57:37;;;;;;;12.30;4.57;;;;;;;;;;4966586;28;20034;-69
2023/07/31 01:00:03;;;;;;;13.25;4.72;;;;;;;;;;4951560;28;20023;-69
2023/07/31 01:02:30;;;;;;;14.23;4.85;;;;;;;;;;4968234;28;20042;-70
2023/07/31 01:04:56;;;;;;;11.35;4.68;;;;;;;;;;4955073;28;20479;-69
2023/07/31 01:07:33;;;;;;;11.32;4.45;;;;;;;;;;4946111;28;20421;-69
2023/07/31 01:10:00;;;;;;;11.57;4.75;;;;;;;;;;4963316;28;20030;-69
2023/07/31 01:12:29;;;;;;;13.20;5.00;;;;;;;;;;4959509;28;20034;-69
2023/07/31 01:15:11;;;;;;;14.52;4.97;;;;;;;;;;4962394;28;20043;-69
2023/07/31 01:17:38;;;;;;;10.13;4.60;;;;;;;;;;4943234;28;20149;-69
2023/07/31 01:20:06;;;;;;;13.90;4.90;;;;;;;;;;4969254;28;20064;-69
2023/07/31 01:22:32;;;;;;;11.77;4.50;;;;;;;;;;4945580;28;20042;-69
2023/07/31 01:25:07;;;;;;;12.35;4.72;;;;;;;;;;4965472;28;20135;-69
2023/07/31 01:27:36;;;;;;;11.43;4.60;;;;;;;;;;4965132;28;20219;-69
2023/07/31 01:30:10;;;;;;;11.82;4.32;;;;;;;;;;4970166;28;20026;-69
2023/07/31 01:32:37;;;;;;;13.57;4.32;;;;;;;;;;4953507;28;20483;-68
2023/07/31 01:35:03;;;;;;;12.52;4.40;;;;;;;;;;4971040;28;20022;-69
2023/07/31 01:37:30;;;;;;;13.52;4.43;;;;;;;;;;4945690;28;20062;-69
2023/07/31 01:39:56;;;;;;;12.45;5.03;;;;;;;;;;4973329;28;20136;-68
2023/07/31 01:42:22;;;;;;;11.20;4.63;;;;;;;;;;4971161;28;20815;-69
2023/07/31 01:44:48;;;;;;;10.20;4.20;;;;;;;;;;4963482;28;20455;-69
2023/07/31 01:47:14;;;;;;;11.68;4.40;;;;;;;;;;4970421;28;20080;-69
2023/07/31 01:49:40;;;;;;;12.50;4.88;;;;;;;;;;4957587;28;20038;-69
2023/07/31 01:52:07;;;;;;;12.77;5.22;;;;;;;;;;4967304;28;20457;-69
2023/07/31 01:54:33;;;;;;;10.45;4.43;;;;;;;;;;4953881;28;20037;-69
2023/07/31 01:56:59;;;;;;;11.00;4.10;;;;;;;;;;4953869;28;20077;-69
2023/07/31 01:59:25;;;;;;;8.90;3.70;;;;;;;;;;4963721;28;20112;-68
2023/07/31 02:01:51;;;;;;;9.93;3.75;;;;;;;;;;4959406;28;20031;-71
2023/07/31 02:04:18;;;;;;;9.27;3.70;;;;;;;;;;4962161;28;20030;-71
2023/07/31 02:06:44;;;;;;;13.30;4.40;;;;;;;;;;4962117;28;21130;-68
2023/07/31 02:09:10;;;;;;;10.23;4.13;;;;;;;;;;4963379;28;20137;-70
2023/07/31 02:11:36;;;;;;;12.07;4.22;;;;;;;;;;4946788;28;20046;-70
2023/07/31 02:14:02;;;;;;;10.35;4.20;;;;;;;;;;4962556;28;20669;-69
2023/07/31 02:16:28;;;;;;;10.48;3.92;;;;;;;;;;4960473;28;20046;-69
2023/07/31 02:18:54;;;;;;;10.45;3.90;;;;;;;;;;4967336;28;20026;-69
2023/07/31 02:21:20;;;;;;;10.63;3.80;;;;;;;;;;4967802;28;20041;-72
2023/07/31 02:23:46;;;;;;;11.43;3.70;;;;;;;;;;4961691;28;20040;-69
2023/07/31 02:26:13;;;;;;;11.40;3.85;;;;;;;;;;4961181;28;20089;-72
2023/07/31 02:28:39;;;;;;;12.43;3.92;;;;;;;;;;4960567;28;20030;-69
2023/07/31 02:31:05;;;;;;;12.32;4.25;;;;;;;;;;4964326;28;20108;-69
2023/07/31 02:33:31;;;;;;;13.32;3.70;;;;;;;;;;4951052;28;20177;-71
2023/07/31 02:35:57;;;;;;;10.95;3.42;;;;;;;;;;4963740;28;20478;-69
2023/07/31 02:38:24;;;;;;;12.90;3.35;;;;;;;;;;4961679;28;20541;-69
2023/07/31 02:40:50;;;;;;;8.98;3.58;;;;;;;;;;4961203;28;20362;-69
2023/07/31 02:43:17;;;;;;;9.70;3.22;;;;;;;;;;4962829;28;20113;-69
2023/07/31 02:45:43;;;;;;;10.52;3.40;;;;;;;;;;4961834;28;20043;-69
2023/07/31 02:48:09;;;;;;;10.45;3.20;;;;;;;;;;4959486;28;20030;-69
2023/07/31 02:50:35;;;;;;;9.20;3.05;;;;;;;;;;4944030;28;20489;-71
2023/07/31 02:53:01;;;;;;;9.52;3.03;;;;;;;;;;4963397;28;20050;-71
2023/07/31 02:55:27;;;;;;;8.00;2.97;;;;;;;;;;4963142;28;20037;-71
2023/07/31 02:57:53;;;;;;;8.40;3.13;;;;;;;;;;4968127;28;20083;-70
2023/07/31 03:00:20;;;;;;;9.68;2.83;;;;;;;;;;4970748;28;20053;-71
2023/07/31 03:02:46;;;;;;;8.65;2.88;;;;;;;;;;4958087;28;20046;-70
2023/07/31 03:05:12;;;;;;;11.00;3.08;;;;;;;;;;4952940;28;20035;-69
2023/07/31 03:07:38;;;;;;;12.32;2.97;;;;;;;;;;4961838;28;20034;-69
2023/07/31 03:10:05;;;;;;;10.55;2.88;;;;;;;;;;4961983;28;20034;-71
2023/07/31 03:12:31;;;;;;;8.55;2.97;;;;;;;;;;4964880;28;20138;-70
2023/07/31 03:14:57;;;;;;;8.88;2.90;;;;;;;;;;4951597;28;20042;-69
2023/07/31 03:17:23;;;;;;;8.15;2.60;;;;;;;;;;4964364;28;20026;-69
2023/07/31 03:19:50;;;;;;;8.90;2.83;;;;;;;;;;4965266;28;20478;-71
2023/07/31 03:22:16;;;;;;;8.88;2.58;;;;;;;;;;4964488;28;20565;-69
2023/07/31 03:24:42;;;;;;;10.18;2.75;;;;;;;;;;4953560;28;20434;-69
2023/07/31 03:27:08;;;;;;;10.43;3.17;;;;;;;;;;4969813;28;20137;-69
2023/07/31 03:29:34;;;;;;;7.05;2.45;;;;;;;;;;4966252;28;20388;-69
2023/07/31 03:32:00;;;;;;;8.70;2.83;;;;;;;;;;4969023;28;20483;-69
2023/07/31 03:34:26;;;;;;;9.70;2.72;;;;;;;;;;4953320;28;20439;-69
2023/07/31 03:36:53;;;;;;;7.82;2.35;;;;;;;;;;4969550;28;20058;-69
2023/07/31 03:39:19;;;;;;;10.80;2.88;;;;;;;;;;4971708;28;20415;-69
2023/07/31 03:41:45;;;;;;;8.70;2.60;;;;;;;;;;4954104;28;20030;-69
2023/07/31 03:44:11;;;;;;;8.63;2.60;;;;;;;;;;4968895;28;20350;-69
2023/07/31 03:46:37;;;;;;;7.15;2.55;;;;;;;;;;4968994;28;20491;-69
2023/07/31 03:49:03;;;;;;;8.77;2.30;;;;;;;;;;4968145;28;20113;-69
2023/07/31 03:51:30;;;;;;;7.78;2.20;;;;;;;;;;4955390;28;20633;-69
2023/07/31 03:53:56;;;;;;;9.60;2.45;;;;;;;;;;4964911;28;20559;-69
2023/07/31 03:56:22;;;;;;;9.63;2.33;;;;;;;;;;4971038;28;20026;-69
2023/07/31 03:58:48;;;;;;;7.10;2.08;;;;;;;;;;4972529;28;20034;-69
2023/07/31 04:01:14;;;;;;;9.52;2.22;;;;;;;;;;4970620;28;20026;-69
2023/07/31 04:03:40;;;;;;;6.55;1.77;;;;;;;;;;4965835;28;20354;-69
2023/07/31 04:06:07;;;;;;;7.45;2.60;;;;;;;;;;4973259;28;20038;-69
2023/07/31 04:08:33;;;;;;;9.63;2.50;;;;;;;;;;4965402;28;20034;-69
2023/07/31 04:10:59;;;;;;;8.52;2.42;;;;;;;;;;4971155;28;20030;-69
2023/07/31 04:13:27;;;;;;;7.68;2.35;;;;;;;;;;4963767;28;20451;-69
2023/07/31 04:15:54;;;;;;;9.40;2.35;;;;;;;;;;4965331;28;20164;-69
2023/07/31 04:18:20;;;;;;;7.75;2.25;;;;;;;;;;4967935;28;20029;-69
2023/07/31 04:20:46;;;;;;;9.27;2.00;;;;;;;;;;4964434;28;20030;-69
2023/07/31 04:23:12;;;;;;;9.02;2.38;;;;;;;;;;4968094;28;20034;-69
2023/07/31 04:25:38;;;;;;;7.85;2.05;;;;;;;;;;4964708;28;20397;-69
2023/07/31 04:28:05;;;;;;;8.98;2.25;;;;;;;;;;4972500;28;20511;-69
2023/07/31 04:30:31;;;;;;;9.65;2.90;;;;;;;;;;4968123;28;20058;-69
2023/07/31 04:32:57;;;;;;;9.38;2.45;;;;;;;;;;4953105;28;20037;-69
2023/07/31 04:35:24;;;;;;;8.65;2.38;;;;;;;;;;4967857;28;20111;-69
2023/07/31 04:37:50;;;;;;;10.35;2.42;;;;;;;;;;4969566;28;20088;-69
2023/07/31 04:40:17;;;;;;;8.77;2.17;;;;;;;;;;4971851;28;20042;-69
2023/07/31 04:42:43;;;;;;;10.02;2.30;;;;;;;;;;4953431;28;20031;-69
2023/07/31 04:45:09;;;;;;;7.95;2.30;;;;;;;;;;4963982;28;20043;-69
2023/07/31 04:47:35;;;;;;;11.13;2.42;;;;;;;;;;4954158;28;20575;-69
2023/07/31 04:50:02;;;;;;;9.15;2.30;;;;;;;;;;4958252;28;20556;-69
2023/07/31 04:52:28;;;;;;;6.95;2.30;;;;;;;;;;4963434;28;20039;-69
2023/07/31 04:54:54;;;;;;;9.38;2.53;;;;;;;;;;4965866;28;20504;-69
2023/07/31 04:57:20;;;;;;;10.25;2.63;;;;;;;;;;4978907;28;20118;-69
2023/07/31 04:59:46;;;;;;;11.75;3.47;;;;;;;;;;4966828;28;20108;-69
2023/07/31 05:02:13;;;;;;;10.05;2.70;;;;;;;;;;4969771;28;20026;-69
2023/07/31 05:04:39;;;;;;;8.50;2.47;;;;;;;;;;4966723;28;20034;-69
2023/07/31 05:07:05;;;;;;;8.65;2.72;;;;;;;;;;4956735;28;20392;-69
2023/07/31 05:09:32;;;;;;;10.68;2.67;;;;;;;;;;4966447;28;20586;-69
2023/07/31 05:11:58;;;;;;;9.30;3.35;;;;;;;;;;4972903;28;20083;-69
2023/07/31 05:14:25;;;;;;;10.23;2.90;;;;;;;;;;4966290;28;20080;-69
2023/07/31 05:16:51;;;;;;;8.23;2.95;;;;;;;;;;4954629;28;20089;-69
2023/07/31 05:19:17;;;;;;;8.93;2.78;;;;;;;;;;4946645;28;20192;-69
2023/07/31 05:21:43;;;;;;;10.50;2.75;;;;;;;;;;4969961;28;22897;-70
2023/07/31 05:24:10;;;;;;;11.07;3.25;;;;;;;;;;4970923;28;20508;-70
2023/07/31 05:26:37;;;;;;;10.48;3.35;;;;;;;;;;4960416;28;20046;-70
2023/07/31 05:29:04;;;;;;;9.00;2.70;;;;;;;;;;4964425;28;20167;-71
2023/07/31 05:31:32;;;;;;;7.70;2.60;;;;;;;;;;4942061;28;20424;-70
2023/07/31 05:33:58;;;;;;;11.50;3.40;;;;;;;;;;4964186;28;20046;-68
2023/07/31 05:36:24;;;;;;;7.95;3.20;;;;;;;;;;4963021;28;20108;-70
2023/07/31 05:38:51;;;;;;;8.65;2.42;;;;;;;;;;4952398;28;20075;-69
2023/07/31 05:41:18;;;;;;;9.43;3.00;;;;;;;;;;4964664;28;20136;-69
2023/07/31 05:43:44;;;;;;;7.22;2.20;;;;;;;;;;4950369;28;21620;-70
2023/07/31 05:46:11;;;;;;;8.45;2.65;;;;;;;;;;4947403;28;20039;-70
2023/07/31 05:48:38;;;;;;;7.85;2.33;;;;;;;;;;4967062;28;20261;-69
2023/07/31 05:51:04;;;;;;;7.57;2.53;;;;;;;;;;4966023;28;20484;-69
2023/07/31 05:53:30;;;;;;;8.30;2.17;;;;;;;;;;4944438;28;20061;-69
2023/07/31 05:55:56;;;;;;;8.35;2.55;;;;;;;;;;4950383;28;20334;-69
2023/07/31 05:58:22;;;;;;;7.10;2.15;;;;;;;;;;4962785;28;20878;-69
2023/07/31 06:00:48;;;;;;;10.10;2.35;;;;;;;;;;4951566;28;20038;-69
2023/07/31 06:03:15;;;;;;;7.60;2.50;;;;;;;;;;4952635;28;20441;-69
2023/07/31 06:05:41;;;;;;;7.85;2.35;;;;;;;;;;4962755;28;20042;-69
2023/07/31 06:08:07;;;;;;;11.25;2.75;;;;;;;;;;4971008;28;20057;-69
2023/07/31 06:10:34;;;;;;;13.07;3.65;;;;;;;;;;4964116;28;20100;-69
2023/07/31 06:13:00;;;;;;;10.02;2.50;;;;;;;;;;4968911;28;20038;-72
2023/07/31 06:15:27;;;;;;;10.05;2.72;;;;;;;;;;4946695;28;20427;-69
2023/07/31 06:17:53;;;;;;;11.15;2.67;;;;;;;;;;4974513;28;20025;-69
2023/07/31 06:20:19;;;;;;;8.10;2.50;;;;;;;;;;4966880;28;20038;-70
2023/07/31 06:22:45;;;;;;;12.82;3.30;;;;;;;;;;4966448;28;20033;-70
2023/07/31 06:25:12;;;;;;;12.68;3.20;;;;;;;;;;4963101;28;20030;-70
2023/07/31 06:27:38;;;;;;;10.70;2.97;;;;;;;;;;4951849;28;20049;-70
2023/07/31 06:30:04;;;;;;;10.02;3.33;;;;;;;;;;4952248;28;20484;-70
2023/07/31 06:32:31;;;;;;;11.63;2.95;;;;;;;;;;4951326;28;20038;-71
2023/07/31 06:34:57;;;;;;;7.82;2.83;;;;;;;;;;4965593;28;20505;-70
2023/07/31 06:37:23;;;;;;;7.82;2.13;;;;;;;;;;4967441;28;20477;-70
2023/07/31 06:39:50;;;;;;;11.20;2.80;;;;;;;;;;4968245;28;20062;-72
2023/07/31 06:42:16;;;;;;;17.23;3.40;;;;;;;;;;4965310;28;20429;-70
2023/07/31 06:44:42;;;;;;;15.75;3.10;;;;;;;;;;4944459;28;20488;-70
2023/07/31 06:47:08;;;;;;;12.45;3.00;;;;;;;;;;4950414;28;20482;-70
2023/07/31 06:49:34;;;;;;;11.70;2.88;;;;;;;;;;4965353;28;20034;-70
2023/07/31 06:52:01;;;;;;;10.18;2.50;;;;;;;;;;4953747;28;20381;-70
2023/07/31 06:54:27;;;;;;;10.88;2.72;;;;;;;;;;4947837;28;20041;-70
2023/07/31 06:56:53;;;;;;;11.45;2.30;;;;;;;;;;4972196;28;20946;-70
2023/07/31 06:59:19;;;;;;;8.25;2.40;;;;;;;;;;4952250;28;20110;-70
2023/07/31 07:01:45;;;;;;;7.65;2.45;;;;;;;;;;4973483;28;20034;-70
2023/07/31 07:04:11;;;;;;;7.75;2.58;;;;;;;;;;4954805;28;20034;-70
2023/07/31 07:06:38;;;;;;;8.98;2.15;;;;;;;;;;4952134;28;20034;-70
2023/07/31 07:09:04;;;;;;;8.90;2.10;;;;;;;;;;4957004;28;20041;-71
2023/07/31 07:11:30;;;;;;;8.35;2.40;;;;;;;;;;4950166;28;20812;-70
2023/07/31 07:13:56;;;;;;;8.88;1.98;;;;;;;;;;4956148;28;20356;-71
2023/07/31 07:16:22;;;;;;;9.93;2.15;;;;;;;;;;4972920;28;20054;-71
2023/07/31 07:18:48;;;;;;;9.82;2.00;;;;;;;;;;4946491;28;20177;-71
2023/07/31 07:21:15;;;;;;;9.27;2.22;;;;;;;;;;4953273;28;20434;-71
2023/07/31 07:23:42;;;;;;;17.08;2.75;;;;;;;;;;4966202;28;20320;-71
2023/07/31 07:26:08;;;;;;;10.23;2.10;;;;;;;;;;4951682;28;20113;-70
2023/07/31 07:28:36;;;;;;;8.40;2.08;;;;;;;;;;4966081;28;20297;-71
2023/07/31 07:31:03;;;;;;;15.73;2.05;;;;;;;;;;4973186;28;20034;-70
2023/07/31 07:33:29;;;;;;;8.13;1.80;;;;;;;;;;4969944;28;20026;-70
2023/07/31 07:35:55;;;;;;;12.25;2.20;;;;;;;;;;4956230;28;20153;-70
2023/07/31 07:38:21;;;;;;;5.18;1.60;;;;;;;;;;4957598;28;20479;-71
2023/07/31 07:40:50;;;;;;;6.82;1.95;;;;;;;;;;4968396;28;20315;-70
2023/07/31 07:43:16;;;;;;;8.45;2.20;;;;;;;;;;4954911;28;20073;-70
2023/07/31 07:45:42;;;;;;;7.28;2.13;;;;;;;;;;4946474;28;20027;-70
2023/07/31 07:48:08;;;;;;;7.88;2.00;;;;;;;;;;4955303;28;20038;-71
2023/07/31 07:50:35;;;;;;;8.35;2.40;;;;;;;;;;4950520;28;20401;-70
2023/07/31 07:53:01;;;;;;;14.30;2.78;;;;;;;;;;4970974;28;20029;-70
2023/07/31 07:55:27;;;;;;;9.73;2.50;;;;;;;;;;4950034;28;20138;-70
2023/07/31 07:57:53;;;;;;;7.57;2.40;;;;;;;;;;4965271;28;20035;-70
2023/07/31 08:00:19;;;;;;;9.05;2.60;;;;;;;;;;4954645;28;20135;-71
2023/07/31 08:02:45;;;;;;;8.45;2.50;;;;;;;;;;4965451;28;20045;-71
2023/07/31 08:05:12;;;;;;;6.75;2.20;;;;;;;;;;4957055;28;20037;-70
2023/07/31 08:07:38;;;;;;;8.02;2.40;;;;;;;;;;4966987;28;20037;-70
2023/07/31 08:10:04;;;;;;;8.30;2.25;;;;;;;;;;4956440;28;20476;-71
2023/07/31 08:12:30;;;;;;;10.13;2.50;;;;;;;;;;4951447;28;20696;-70
2023/07/31 08:14:57;;;;;;;13.57;2.53;;;;;;;;;;4952858;28;20042;-73
2023/07/31 08:17:23;;;;;;;8.55;2.20;;;;;;;;;;4970817;28;20050;-69
2023/07/31 08:19:49;;;;;;;11.90;2.53;;;;;;;;;;4971243;28;20033;-71
2023/07/31 08:22:16;;;;;;;12.90;2.25;;;;;;;;;;4970124;28;20380;-69
2023/07/31 08:24:42;;;;;;;18.10;2.50;;;;;;;;;;4951838;28;20030;-69
2023/07/31 08:27:08;;;;;;;9.55;2.40;;;;;;;;;;4971491;28;20041;-69
2023/07/31 08:29:34;;;;;;;9.15;2.40;;;;;;;;;;4953729;28;20187;-68
2023/07/31 08:32:00;;;;;;;12.80;2.55;;;;;;;;;;4945713;28;20061;-69
2023/07/31 08:34:26;;;;;;;6.22;2.10;;;;;;;;;;4954600;28;20027;-68
2023/07/31 08:36:52;;;;;;;9.50;2.35;;;;;;;;;;4959042;28;20026;-69
2023/07/31 08:39:19;;;;;;;7.20;2.03;;;;;;;;;;4957257;28;20025;-68
2023/07/31 08:41:45;;;;;;;11.73;2.60;;;;;;;;;;4963111;28;20236;-69
2023/07/31 08:44:11;;;;;;;15.20;2.42;;;;;;;;;;4953151;28;20487;-69
2023/07/31 08:46:37;;;;;;;8.80;2.20;;;;;;;;;;4958745;28;20053;-70
2023/07/31 08:49:07;;;;;;;9.00;2.40;;;;;;;;;;4970289;28;20034;-69
2023/07/31 08:51:37;;;;;;;8.10;2.60;;;;;;;;;;4959456;28;20038;-69
2023/07/31 08:54:06;;;;;;;7.80;2.33;;;;;;;;;;4968181;28;20339;-69
2023/07/31 08:56:32;;;;;;;9.95;2.10;;;;;;;;;;4964899;28;20037;-69
2023/07/31 08:59:00;;;;;;;9.27;2.45;;;;;;;;;;4942991;28;22319;-70
2023/07/31 09:01:26;;;;;;;11.40;2.58;;;;;;;;;;4965665;28;20038;-70
2023/07/31 09:03:53;;;;;;;7.60;2.53;;;;;;;;;;4965240;28;20478;-70
2023/07/31 09:06:22;;;;;;;9.18;2.40;;;;;;;;;;4952931;28;20111;-70
2023/07/31 09:08:48;;;;;;;9.50;2.20;;;;;;;;;;4946649;28;20052;-69
2023/07/31 09:11:14;;;;;;;7.68;2.28;;;;;;;;;;4960924;28;20109;-69
2023/07/31 09:13:40;;;;;;;8.88;2.40;;;;;;;;;;4946173;28;20464;-70
2023/07/31 09:16:06;;;;;;;8.77;2.63;;;;;;;;;;4963345;28;20105;-70
2023/07/31 09:18:41;;;;;;;7.50;2.40;;;;;;;;;;4952368;28;20461;-70
2023/07/31 09:21:07;;;;;;;9.13;2.60;;;;;;;;;;4942617;28;20069;-70
2023/07/31 09:23:47;;;;;;;10.73;2.63;;;;;;;;;;4958761;28;20081;-70
2023/07/31 09:26:34;;;;;;;8.90;2.30;;;;;;;;;;4943245;28;20164;-70
2023/07/31 09:29:00;;;;;;;7.13;2.20;;;;;;;;;;4964686;28;20141;-71
2023/07/31 09:31:53;;;;;;;10.13;2.70;;;;;;;;;;4953616;28;20666;-68
2023/07/31 09:34:19;;;;;;;10.50;2.42;;;;;;;;;;4946050;28;20047;-69
2023/07/31 09:36:45;;;;;;;9.27;2.63;;;;;;;;;;4946410;28;20265;-70
2023/07/31 09:39:12;;;;;;;9.00;2.20;;;;;;;;;;4951124;28;20422;-69
2023/07/31 09:41:49;;;;;;;8.65;2.47;;;;;;;;;;5039441;27;20794;-69
2023/07/31 09:44:15;;;;;;;8.63;2.65;;;;;;;;;;5027945;28;20034;-69
2023/07/31 09:46:42;;;;;;;8.00;2.20;;;;;;;;;;5004999;28;20547;-69
2023/07/31 09:49:09;;;;;;;7.25;2.20;;;;;;;;;;5000641;28;20500;-69
2023/07/31 09:51:38;;;;;;;7.78;2.38;;;;;;;;;;5002084;28;20462;-69
2023/07/31 09:54:14;;;;;;;15.15;2.67;;;;;;;;;;5004747;28;20030;-70
2023/07/31 09:56:48;;;;;;;9.30;2.60;;;;;;;;;;4998147;28;20179;-70
2023/07/31 09:59:18;;;;;;;9.18;2.75;;;;;;;;;;4999043;28;20111;-70
2023/07/31 10:01:46;;;;;;;6.72;2.35;;;;;;;;;;4996913;28;22007;-69
2023/07/31 10:04:12;;;;;;;8.60;2.47;;;;;;;;;;5002024;28;20225;-70
2023/07/31 10:06:39;;;;;;;8.77;2.63;;;;;;;;;;5000953;28;20029;-70
2023/07/31 10:09:06;;;;;;;8.77;2.40;;;;;;;;;;5000625;28;20267;-70
2023/07/31 10:11:36;;;;;;;7.63;2.60;;;;;;;;;;4998956;28;20339;-70
2023/07/31 10:14:03;;;;;;;7.60;2.35;;;;;;;;;;4996830;28;20477;-70
2023/07/31 10:16:29;;;;;;;12.55;2.70;;;;;;;;;;5001353;28;20029;-69
2023/07/31 10:18:56;;;;;;;8.52;2.45;;;;;;;;;;5000375;28;20088;-69
2023/07/31 10:21:22;;;;;;;8.43;2.60;;;;;;;;;;5003527;28;20036;-70
2023/07/31 10:23:48;;;;;;;10.70;2.72;;;;;;;;;;4996238;28;20033;-69
2023/07/31 10:26:17;;;;;;;10.15;2.38;;;;;;;;;;4998511;28;20041;-70
2023/07/31 10:28:44;;;;;;;10.23;2.50;;;;;;;;;;5000074;28;20038;-70
2023/07/31 10:31:11;;;;;;;11.38;2.60;;;;;;;;;;5000806;28;20033;-70
2023/07/31 10:33:37;;;;;;;8.82;2.42;;;;;;;;;;5004779;28;20049;-70
2023/07/31 10:36:14;;;;;;;9.30;2.40;;;;;;;;;;5000277;28;20497;-70
2023/07/31 10:38:40;;;;;;;8.85;2.20;;;;;;;;;;4998011;28;20038;-70
2023/07/31 10:41:10;;;;;;;10.13;2.30;;;;;;;;;;4995093;28;20524;-70
2023/07/31 10:43:37;;;;;;;8.55;2.15;;;;;;;;;;5013078;28;20371;-70
2023/07/31 10:46:10;;;;;;;9.35;2.30;;;;;;;;;;5009934;28;20278;-70
2023/07/31 10:48:36;;;;;;;9.30;2.22;;;;;;;;;;4992924;28;20132;-70
2023/07/31 10:51:07;;;;;;;9.52;2.67;;;;;;;;;;4997038;28;20083;-70
2023/07/31 10:53:33;;;;;;;16.95;3.35;;;;;;;;;;4986158;28;20034;-70
2023/07/31 10:56:04;;;;;;;15.40;3.03;;;;;;;;;;4980637;28;20083;-70
2023/07/31 10:58:33;;;;;;;17.83;4.07;;;;;;;;;;4983101;28;20889;-70
2023/07/31 11:01:01;;;;;;;21.83;4.10;;;;;;;;;;4985198;28;20152;-70
2023/07/31 11:03:28;;;;;;;12.02;3.08;;;;;;;;;;4981433;28;20030;-70
2023/07/31 11:06:02;;;;;;;9.50;2.90;;;;;;;;;;4992452;28;20383;-69
2023/07/31 11:08:28;;;;;;;12.60;2.90;;;;;;;;;;4983952;28;20539;-70
2023/07/31 11:11:04;;;;;;;10.77;3.10;;;;;;;;;;4983711;28;20113;-70
2023/07/31 11:13:30;;;;;;;28.15;4.80;;;;;;;;;;4985006;28;20065;-69
2023/07/31 11:15:56;;;;;;;19.30;3.83;;;;;;;;;;4987951;28;20159;-70
2023/07/31 11:18:22;;;;;;;11.85;3.10;;;;;;;;;;4983970;28;20145;-70
2023/07/31 11:20:49;;;;;;;62.72;12.32;;;;;;;;;;5001974;28;20065;-71
2023/07/31 11:23:17;;;;;;;14.57;3.90;;;;;;;;;;4989431;28;20546;-70
2023/07/31 11:25:43;;;;;;;10.93;3.20;;;;;;;;;;4985250;28;20044;-70
2023/07/31 11:28:11;;;;;;;11.65;3.17;;;;;;;;;;4987912;28;20034;-70
2023/07/31 11:30:37;;;;;;;10.10;2.53;;;;;;;;;;4997445;28;20061;-69
2023/07/31 11:33:04;;;;;;;9.18;2.50;;;;;;;;;;4982177;28;20032;-70
2023/07/31 11:35:34;;;;;;;12.15;2.80;;;;;;;;;;4986259;28;20029;-70
2023/07/31 11:38:01;;;;;;;13.77;2.75;;;;;;;;;;4982529;28;20032;-70
2023/07/31 11:40:30;;;;;;;50.88;9.73;;;;;;;;;;4980715;28;20092;-70
2023/07/31 11:42:59;;;;;;;17.40;4.10;;;;;;;;;;4983117;28;20438;-70
2023/07/31 11:45:27;;;;;;;14.15;3.38;;;;;;;;;;4985403;28;20021;-70
2023/07/31 11:47:54;;;;;;;13.13;2.83;;;;;;;;;;4982240;28;20057;-70
2023/07/31 11:50:21;;;;;;;10.48;2.40;;;;;;;;;;4984949;28;20432;-70
2023/07/31 11:52:48;;;;;;;11.45;2.45;;;;;;;;;;4987346;28;20045;-70
2023/07/31 11:55:15;;;;;;;9.68;2.40;;;;;;;;;;4984659;28;20085;-70
2023/07/31 11:57:42;;;;;;;11.32;3.08;;;;;;;;;;4986844;28;20458;-70
2023/07/31 12:00:10;;;;;;;13.45;3.90;;;;;;;;;;4981229;28;20293;-70
2023/07/31 12:02:39;;;;;;;11.55;3.60;;;;;;;;;;4986961;28;20040;-70
2023/07/31 12:05:06;;;;;;;12.98;3.47;;;;;;;;;;4981218;28;20106;-71
2023/07/31 12:07:52;;;;;;;10.48;2.80;;;;;;;;;;4982570;28;20030;-70
2023/07/31 12:10:29;;;;;;;12.18;2.90;;;;;;;;;;4993958;28;20547;-70
2023/07/31 12:13:00;;;;;;;12.30;3.05;;;;;;;;;;4983657;28;20647;-70
2023/07/31 12:15:42;;;;;;;11.05;2.45;;;;;;;;;;4980546;28;20034;-70
2023/07/31 12:18:10;;;;;;;11.27;2.85;;;;;;;;;;4979322;28;20029;-70
2023/07/31 12:20:36;;;;;;;12.57;3.05;;;;;;;;;;4985173;28;20045;-71
2023/07/31 12:23:02;;;;;;;10.90;2.67;;;;;;;;;;4987363;28;20121;-71
2023/07/31 12:25:29;;;;;;;9.50;2.78;;;;;;;;;;4982592;28;20088;-70
2023/07/31 12:27:55;;;;;;;14.82;3.17;;;;;;;;;;4994517;28;20030;-72
2023/07/31 12:30:28;;;;;;;10.80;2.70;;;;;;;;;;4984024;28;20030;-70
2023/07/31 12:32:55;;;;;;;8.35;2.58;;;;;;;;;;4991083;28;20504;-70
2023/07/31 12:35:21;;;;;;;9.05;2.63;;;;;;;;;;4988139;28;20369;-70
2023/07/31 12:37:47;;;;;;;10.10;2.70;;;;;;;;;;4983907;28;20033;-70
2023/07/31 12:40:13;;;;;;;12.38;3.00;;;;;;;;;;4987957;28;20610;-71
2023/07/31 12:42:39;;;;;;;10.02;2.80;;;;;;;;;;4984611;28;20104;-70
2023/07/31 12:45:06;;;;;;;9.15;2.78;;;;;;;;;;4981805;28;20348;-70
2023/07/31 12:47:32;;;;;;;14.68;3.55;;;;;;;;;;4980084;28;20495;-70
2023/07/31 12:49:58;;;;;;;10.50;3.00;;;;;;;;;;4983217;28;20029;-70
2023/07/31 12:52:25;;;;;;;13.43;3.10;;;;;;;;;;4996790;28;20045;-70
2023/07/31 12:54:51;;;;;;;13.27;3.50;;;;;;;;;;4986510;28;20037;-71
2023/07/31 12:57:17;;;;;;;9.65;2.80;;;;;;;;;;4986623;28;20042;-70
2023/07/31 12:59:43;;;;;;;17.58;3.00;;;;;;;;;;4978737;28;20049;-70
2023/07/31 13:02:09;;;;;;;12.10;2.83;;;;;;;;;;4984956;28;20439;-70
2023/07/31 13:04:35;;;;;;;9.88;2.88;;;;;;;;;;4980727;28;20301;-70
2023/07/31 13:07:01;;;;;;;10.23;2.78;;;;;;;;;;4982378;28;20455;-70
2023/07/31 13:09:28;;;;;;;10.70;2.60;;;;;;;;;;4979773;28;20034;-69
2023/07/31 13:11:54;;;;;;;11.95;3.58;;;;;;;;;;4981382;28;20234;-70
2023/07/31 13:14:20;;;;;;;9.75;2.75;;;;;;;;;;4982412;28;20021;-70
2023/07/31 13:16:46;;;;;;;9.10;2.80;;;;;;;;;;4979438;28;20025;-70
2023/07/31 13:19:12;;;;;;;10.10;3.10;;;;;;;;;;4986133;28;20037;-70
2023/07/31 13:21:39;;;;;;;9.32;3.15;;;;;;;;;;4981584;28;20143;-71
2023/07/31 13:24:05;;;;;;;10.07;3.03;;;;;;;;;;4985831;28;20482;-70
2023/07/31 13:26:31;;;;;;;11.88;3.00;;;;;;;;;;4981897;28;20029;-70
2023/07/31 13:28:57;;;;;;;15.10;3.47;;;;;;;;;;4983251;28;20030;-70
2023/07/31 13:31:24;;;;;;;11.52;3.28;;;;;;;;;;4984417;28;20218;-70
2023/07/31 13:33:50;;;;;;;13.40;3.50;;;;;;;;;;4991852;28;20030;-70
2023/07/31 13:36:16;;;;;;;12.07;3.38;;;;;;;;;;4991907;28;20036;-70
2023/07/31 13:38:42;;;;;;;12.48;3.10;;;;;;;;;;4987484;28;20033;-71
2023/07/31 13:41:08;;;;;;;13.90;3.22;;;;;;;;;;4989043;28;20058;-71
2023/07/31 13:43:34;;;;;;;16.17;3.85;;;;;;;;;;4986117;28;20527;-71
2023/07/31 13:46:06;;;;;;;16.17;3.72;;;;;;;;;;4984142;28;20026;-72
2023/07/31 13:48:32;;;;;;;11.20;3.03;;;;;;;;;;4985091;28;20265;-71
2023/07/31 13:50:59;;;;;;;12.73;3.33;;;;;;;;;;4992644;28;20033;-71
2023/07/31 13:53:25;;;;;;;17.88;3.40;;;;;;;;;;5002189;28;20049;-71
2023/07/31 13:55:51;;;;;;;10.45;3.10;;;;;;;;;;4981722;28;20034;-71
2023/07/31 13:58:18;;;;;;;13.27;3.17;;;;;;;;;;4988416;28;20255;-69
2023/07/31 14:00:44;;;;;;;11.38;2.85;;;;;;;;;;4986208;28;20038;-69
2023/07/31 14:03:10;;;;;;;9.98;2.85;;;;;;;;;;5000264;28;20025;-69
2023/07/31 14:05:36;;;;;;;12.60;3.25;;;;;;;;;;4984018;28;20033;-71
2023/07/31 14:08:03;;;;;;;13.32;3.45;;;;;;;;;;4989631;28;20371;-71
2023/07/31 14:10:29;;;;;;;11.80;2.90;;;;;;;;;;4981908;28;20270;-72
2023/07/31 14:12:55;;;;;;;11.68;3.00;;;;;;;;;;4987190;28;20030;-71
2023/07/31 14:15:21;;;;;;;10.07;2.30;;;;;;;;;;4986913;28;20030;-71
2023/07/31 14:17:47;;;;;;;8.75;2.53;;;;;;;;;;4984397;28;20681;-71
2023/07/31 14:20:13;;;;;;;10.32;2.80;;;;;;;;;;4987514;28;20632;-72
2023/07/31 14:22:40;;;;;;;10.90;2.60;;;;;;;;;;4988318;28;20022;-71
2023/07/31 14:25:06;;;;;;;13.27;3.10;;;;;;;;;;4987866;28;20038;-71
2023/07/31 14:27:32;;;;;;;12.20;2.90;;;;;;;;;;4988020;28;20017;-71
2023/07/31 14:29:59;;;;;;;12.15;3.20;;;;;;;;;;4987842;28;20152;-71
2023/07/31 14:32:25;;;;;;;12.82;2.90;;;;;;;;;;4989310;28;20021;-71
2023/07/31 14:34:51;;;;;;;12.48;2.92;;;;;;;;;;4988459;28;20038;-71